Time;durP1;ratioP1;P1;durP2;ratioP2;P2;SDS_P1;SDS_P2;PMS_P1;PMS_P2;Temp;Humidity;BMP_temperature;BMP_pressure;BME280_temperature;BME280_humidity;BME280_pressure;Samples;Min_cycle;Max_cycle;Signal;HPM_P1;HPM_P2
2022/02/19 00:00:08;;;;;;;8.35;3.95;;;;;;;12.24;54.07;97687.56;5104919;28;20052;-70
2022/02/19 00:02:35;;;;;;;6.93;2.83;;;;;;;12.31;53.78;97700.88;5104900;28;20052;-70
2022/02/19 00:05:02;;;;;;;10.48;4.38;;;;;;;12.34;53.64;97700.53;5107323;28;20048;-71
2022/02/19 00:07:29;;;;;;;6.78;3.75;;;;;;;12.41;53.45;97698.78;5107420;28;20078;-71
2022/02/19 00:09:58;;;;;;;9.23;3.28;;;;;;;12.49;53.08;97703.13;5108350;28;20057;-71
2022/02/19 00:12:25;;;;;;;8.50;3.63;;;;;;;12.56;52.14;97720.72;5108015;28;20050;-69
2022/02/19 00:14:52;;;;;;;6.63;2.72;;;;;;;12.67;51.76;97734.50;5107077;28;20050;-71
2022/02/19 00:17:20;;;;;;;4.85;2.35;;;;;;;12.78;49.88;97724.25;5105705;28;20135;-73
2022/02/19 00:19:47;;;;;;;5.63;2.67;;;;;;;12.92;49.39;97727.03;5106443;28;20046;-70
2022/02/19 00:22:14;;;;;;;7.57;4.10;;;;;;;13.02;49.38;97746.09;5103590;28;20067;-70
2022/02/19 00:24:42;;;;;;;6.90;3.80;;;;;;;13.06;49.03;97736.75;5105093;28;20417;-72
2022/02/19 00:27:10;;;;;;;9.20;3.45;;;;;;;13.06;48.67;97755.28;5106442;28;20056;-70
2022/02/19 00:29:37;;;;;;;4.55;1.95;;;;;;;13.07;48.55;97767.56;5105038;28;20050;-70
2022/02/19 00:32:05;;;;;;;5.25;2.08;;;;;;;13.13;48.15;97777.38;5106103;28;20112;-69
2022/02/19 00:34:32;;;;;;;11.10;2.33;;;;;;;13.15;47.45;97764.75;5107065;28;20138;-73
2022/02/19 00:36:59;;;;;;;3.10;2.38;;;;;;;13.19;47.13;97787.22;5106896;28;20050;-69
2022/02/19 00:39:26;;;;;;;5.50;2.10;;;;;;;13.20;45.69;97788.06;5106303;28;20127;-70
2022/02/19 00:41:54;;;;;;;4.22;1.80;;;;;;;13.18;45.61;97785.59;5107632;28;20130;-70
2022/02/19 00:44:22;;;;;;;4.70;2.08;;;;;;;13.18;45.08;97796.19;5106850;28;20039;-73
2022/02/19 00:46:49;;;;;;;7.18;1.95;;;;;;;13.27;45.42;97806.66;5107457;28;20079;-70
2022/02/19 00:49:16;;;;;;;7.15;2.10;;;;;;;13.30;45.06;97814.25;5108913;28;20044;-71
2022/02/19 00:51:43;;;;;;;5.78;1.83;;;;;;;13.34;44.51;97805.78;5107128;28;20044;-69
2022/02/19 00:54:10;;;;;;;5.38;1.45;;;;;;;13.39;43.70;97837.81;5106049;28;20050;-71
2022/02/19 00:56:39;;;;;;;4.43;2.45;;;;;;;13.37;42.08;97820.47;5107944;28;20621;-70
2022/02/19 00:59:06;;;;;;;8.13;2.90;;;;;;;13.37;40.86;97809.88;5098512;28;20051;-72
2022/02/19 01:01:35;;;;;;;2.55;1.50;;;;;;;13.22;37.12;97862.06;5106529;28;20050;-70
2022/02/19 01:04:02;;;;;;;6.55;2.00;;;;;;;12.88;34.71;97829.09;5107265;28;20123;-72
2022/02/19 01:06:29;;;;;;;2.92;1.77;;;;;;;12.97;36.01;97862.41;5106745;28;20446;-68
2022/02/19 01:08:57;;;;;;;3.72;1.13;;;;;;;12.75;34.67;97835.03;5106987;28;20058;-71
2022/02/19 01:11:24;;;;;;;1.23;0.85;;;;;;;12.85;34.50;97858.59;5107017;28;20043;-66
2022/02/19 01:13:51;;;;;;;2.08;0.77;;;;;;;12.79;34.19;97862.78;5106616;28;20047;-73
2022/02/19 01:16:19;;;;;;;4.47;1.65;;;;;;;12.71;35.08;97890.22;5107165;28;20043;-72
2022/02/19 01:18:47;;;;;;;5.88;1.08;;;;;;;12.79;35.83;97886.63;5107173;28;20058;-69
2022/02/19 01:21:17;;;;;;;3.35;1.75;;;;;;;12.76;36.66;97882.50;5106327;28;20126;-71
2022/02/19 01:23:44;;;;;;;4.95;2.17;;;;;;;12.59;36.14;97881.06;5105722;28;20592;-71
2022/02/19 01:26:11;;;;;;;3.00;1.02;;;;;;;12.52;36.81;97886.25;5106394;28;20117;-72
2022/02/19 01:28:38;;;;;;;3.50;1.75;;;;;;;12.42;36.56;97907.72;5106100;28;20070;-70
2022/02/19 01:31:07;;;;;;;1.83;1.00;;;;;;;12.42;36.93;97923.59;5099109;28;20483;-69
2022/02/19 01:33:35;;;;;;;2.45;1.08;;;;;;;12.35;35.57;97935.91;5107501;28;20131;-71
2022/02/19 01:36:04;;;;;;;4.55;1.17;;;;;;;12.24;35.38;97925.75;5101160;28;20078;-71
2022/02/19 01:38:31;;;;;;;7.07;1.13;;;;;;;12.12;35.96;97925.34;5087175;28;20052;-69
2022/02/19 01:40:59;;;;;;;6.55;1.75;;;;;;;12.01;33.79;97931.91;5086128;28;20040;-69
2022/02/19 01:43:26;;;;;;;4.05;0.90;;;;;;;11.98;34.46;97947.28;5086492;28;20823;-68
2022/02/19 01:45:53;;;;;;;4.70;1.08;;;;;;;11.93;34.47;97936.41;5086656;28;20419;-70
2022/02/19 01:48:20;;;;;;;3.47;1.30;;;;;;;11.85;34.89;97953.16;5086629;28;20048;-70
2022/02/19 01:50:48;;;;;;;0.88;0.60;;;;;;;11.77;35.46;97950.53;5085630;28;20040;-69
2022/02/19 01:53:18;;;;;;;5.40;1.27;;;;;;;11.71;35.43;97956.53;5083397;28;20059;-70
2022/02/19 01:55:47;;;;;;;5.43;1.42;;;;;;;11.61;35.26;97915.28;5085548;28;20523;-69
2022/02/19 01:58:15;;;;;;;3.67;0.90;;;;;;;11.58;35.14;97962.41;5086408;28;20052;-69
2022/02/19 02:00:42;;;;;;;5.22;1.17;;;;;;;11.51;35.68;97964.09;5086703;28;20127;-68
2022/02/19 02:03:09;;;;;;;6.47;1.65;;;;;;;11.39;35.45;97961.00;5085480;28;20241;-70
2022/02/19 02:05:37;;;;;;;2.63;0.63;;;;;;;11.38;35.49;97972.56;5085916;28;20139;-68
2022/02/19 02:08:06;;;;;;;2.53;1.23;;;;;;;11.35;34.61;97975.56;5086755;28;20135;-70
2022/02/19 02:10:36;;;;;;;4.10;1.75;;;;;;;11.36;35.29;97985.13;5085052;28;20044;-70
2022/02/19 02:13:04;;;;;;;4.70;1.25;;;;;;;11.31;35.45;97974.25;5084898;28;20040;-68
2022/02/19 02:15:33;;;;;;;3.92;1.42;;;;;;;11.25;35.66;97963.41;5085699;28;20223;-70
2022/02/19 02:18:00;;;;;;;3.80;1.55;;;;;;;11.20;35.81;97949.88;5085402;28;20079;-69
2022/02/19 02:20:28;;;;;;;3.47;1.52;;;;;;;11.21;34.86;97985.84;5086554;28;20155;-70
2022/02/19 02:22:56;;;;;;;3.53;1.38;;;;;;;11.26;34.66;98002.03;5083753;28;20050;-71
2022/02/19 02:25:27;;;;;;;3.40;1.63;;;;;;;11.29;35.02;97987.66;5083856;28;20052;-67
2022/02/19 02:27:54;;;;;;;1.88;0.88;;;;;;;11.19;35.47;97974.63;5084759;28;20055;-70
2022/02/19 02:30:22;;;;;;;5.70;1.52;;;;;;;11.15;35.47;97997.13;5085371;28;20055;-71
2022/02/19 02:32:49;;;;;;;4.13;1.85;;;;;;;11.12;34.54;97999.28;5092223;28;20119;-73
2022/02/19 02:35:17;;;;;;;5.30;1.10;;;;;;;11.20;34.69;98021.22;5087073;28;20050;-74
2022/02/19 02:37:44;;;;;;;5.55;1.40;;;;;;;11.25;34.87;97997.75;5074184;28;20047;-69
2022/02/19 02:40:14;;;;;;;2.38;1.15;;;;;;;11.27;35.25;98003.69;5091327;28;20074;-69
2022/02/19 02:42:41;;;;;;;8.35;1.63;;;;;;;11.19;35.18;98011.63;5091069;28;20051;-71
2022/02/19 02:45:09;;;;;;;4.65;1.42;;;;;;;11.11;35.26;98019.59;5092366;28;20044;-68
2022/02/19 02:47:41;;;;;;;5.32;1.52;;;;;;;11.09;35.38;98016.25;5092780;28;20051;-68
2022/02/19 02:50:09;;;;;;;1.65;0.90;;;;;;;11.03;35.75;98017.78;5089310;28;20048;-69
2022/02/19 02:52:35;;;;;;;3.97;1.98;;;;;;;11.03;35.19;98017.78;5087265;28;20130;-70
2022/02/19 02:55:04;;;;;;;1.80;0.98;;;;;;;11.03;35.05;98006.38;5089671;28;20139;-71
2022/02/19 02:57:32;;;;;;;2.53;0.75;;;;;;;11.02;35.15;98015.28;5091158;28;20048;-68
2022/02/19 02:59:59;;;;;;;4.18;1.27;;;;;;;11.01;35.02;98008.38;5091564;28;20087;-69
2022/02/19 03:02:29;;;;;;;5.30;1.98;;;;;;;10.93;34.94;98008.38;5090668;28;20495;-72
2022/02/19 03:04:56;;;;;;;2.83;1.25;;;;;;;10.90;35.05;98020.94;5092195;28;20179;-71
2022/02/19 03:07:23;;;;;;;5.28;1.85;;;;;;;10.91;35.08;98029.69;5092186;28;20550;-70
2022/02/19 03:09:50;;;;;;;8.18;2.03;;;;;;;10.96;34.94;98031.81;5090504;28;20135;-69
2022/02/19 03:12:17;;;;;;;2.20;1.10;;;;;;;10.93;35.28;98040.09;5088880;28;20052;-69
2022/02/19 03:14:46;;;;;;;5.30;1.58;;;;;;;10.89;35.32;98018.47;5088772;28;20048;-72
2022/02/19 03:17:12;;;;;;;0.80;0.70;;;;;;;10.88;34.86;98033.50;5091814;28;20044;-69
2022/02/19 03:19:39;;;;;;;5.03;1.42;;;;;;;10.92;35.21;98046.38;5088844;28;20044;-69
2022/02/19 03:22:06;;;;;;;2.58;0.85;;;;;;;10.89;35.31;98043.06;5090929;28;20638;-71
2022/02/19 03:24:34;;;;;;;4.72;1.58;;;;;;;10.87;35.29;98092.56;5085593;28;20048;-69
2022/02/19 03:27:02;;;;;;;3.50;1.63;;;;;;;10.77;34.78;98078.72;5086911;28;20622;-72
2022/02/19 03:29:29;;;;;;;2.95;1.13;;;;;;;10.82;34.91;98068.50;5085879;28;20048;-70
2022/02/19 03:31:58;;;;;;;4.88;1.50;;;;;;;10.81;35.38;98082.69;5085461;28;20087;-72
2022/02/19 03:34:25;;;;;;;3.03;0.93;;;;;;;10.72;34.26;98075.75;5085289;28;20054;-71
2022/02/19 03:36:52;;;;;;;3.67;0.82;;;;;;;10.71;34.61;98077.59;5085236;28;20118;-73
2022/02/19 03:39:19;;;;;;;3.67;1.80;;;;;;;10.68;33.76;98087.66;5088895;28;20095;-69
2022/02/19 03:41:46;;;;;;;2.78;0.82;;;;;;;10.70;34.14;98086.47;5090214;28;20090;-69
2022/02/19 03:44:13;;;;;;;5.13;1.38;;;;;;;10.69;34.39;98110.41;5090673;28;20220;-69
2022/02/19 03:46:40;;;;;;;2.03;1.30;;;;;;;10.69;34.64;98102.50;5091209;28;20054;-69
2022/02/19 03:49:08;;;;;;;2.60;1.10;;;;;;;10.74;34.69;98112.56;5089845;28;20198;-68
2022/02/19 03:51:36;;;;;;;4.97;1.65;;;;;;;10.73;34.81;98100.34;5091501;28;20048;-68
2022/02/19 03:54:05;;;;;;;4.20;1.45;;;;;;;10.76;34.89;98108.75;5070192;28;20044;-72
2022/02/19 03:56:33;;;;;;;2.42;1.10;;;;;;;10.69;35.37;98105.13;5090158;28;20101;-70
2022/02/19 03:59:00;;;;;;;1.95;1.15;;;;;;;10.63;35.18;98117.16;5089594;28;20126;-70
2022/02/19 04:01:27;;;;;;;4.32;0.98;;;;;;;10.60;35.62;98109.56;5089037;28;20054;-69
2022/02/19 04:03:54;;;;;;;4.13;1.15;;;;;;;10.66;35.03;98137.13;5088706;28;20046;-67
2022/02/19 04:06:25;;;;;;;4.55;1.35;;;;;;;10.73;34.68;98102.97;5089149;28;20059;-71
2022/02/19 04:08:52;;;;;;;5.43;2.42;;;;;;;10.76;34.45;98126.44;5088303;28;20067;-69
2022/02/19 04:11:19;;;;;;;4.72;1.10;;;;;;;10.84;34.39;98126.41;5088774;28;20051;-69
2022/02/19 04:13:46;;;;;;;4.70;1.67;;;;;;;10.80;34.00;98136.47;5088416;28;20040;-69
2022/02/19 04:16:13;;;;;;;3.80;1.75;;;;;;;10.78;34.04;98153.47;5088266;28;20059;-69
2022/02/19 04:18:40;;;;;;;6.65;1.15;;;;;;;10.78;33.87;98140.28;5088777;28;20131;-71
2022/02/19 04:21:08;;;;;;;9.55;1.95;;;;;;;10.82;34.19;98141.59;5088099;28;20058;-69
2022/02/19 04:23:37;;;;;;;5.28;1.75;;;;;;;10.67;34.08;98138.78;5087109;28;20051;-70
2022/02/19 04:26:05;;;;;;;2.03;1.15;;;;;;;10.65;34.18;98138.13;5080417;28;20051;-70
2022/02/19 04:28:32;;;;;;;8.10;2.03;;;;;;;10.61;33.38;98150.00;5088470;28;20066;-70
2022/02/19 04:30:59;;;;;;;1.58;1.02;;;;;;;10.71;33.97;98124.25;5088564;28;20040;-70
2022/02/19 04:33:26;;;;;;;6.68;1.70;;;;;;;10.72;34.20;98128.56;5088101;28;20436;-68
2022/02/19 04:35:53;;;;;;;4.70;1.48;;;;;;;10.67;34.38;98154.63;5088305;28;20054;-70
2022/02/19 04:38:23;;;;;;;3.30;1.42;;;;;;;10.69;34.12;98145.53;5088596;28;20104;-68
2022/02/19 04:40:52;;;;;;;5.05;1.67;;;;;;;10.65;34.01;98133.66;5087832;28;20109;-70
2022/02/19 04:43:19;;;;;;;4.35;1.15;;;;;;;10.58;34.51;98143.22;5088382;28;20127;-70
2022/02/19 04:45:45;;;;;;;3.70;1.75;;;;;;;10.55;34.47;98163.84;5088961;28;20119;-67
2022/02/19 04:48:12;;;;;;;5.82;2.40;;;;;;;10.48;34.14;98143.41;5089799;28;20054;-68
2022/02/19 04:50:40;;;;;;;3.78;1.48;;;;;;;10.51;34.44;98160.72;5089174;28;20044;-70
2022/02/19 04:53:07;;;;;;;3.72;1.33;;;;;;;10.51;34.21;98147.50;5087869;28;20044;-71
2022/02/19 04:55:34;;;;;;;4.10;1.85;;;;;;;10.50;34.29;98170.44;5088736;28;20476;-69
2022/02/19 04:58:03;;;;;;;5.72;1.23;;;;;;;10.55;34.38;98154.09;5088074;28;20627;-72
2022/02/19 05:00:31;;;;;;;4.13;1.10;;;;;;;10.55;34.47;98180.50;5087109;28;20048;-70
2022/02/19 05:02:58;;;;;;;7.03;2.20;;;;;;;10.49;34.06;98187.25;5087153;28;20634;-70
2022/02/19 05:05:25;;;;;;;3.67;0.85;;;;;;;10.54;33.71;98199.16;5087553;28;20047;-69
2022/02/19 05:07:52;;;;;;;7.88;1.83;;;;;;;10.48;32.87;98192.72;5088742;28;20127;-70
2022/02/19 05:10:19;;;;;;;5.20;1.92;;;;;;;10.48;33.27;98196.19;5086804;28;20087;-70
2022/02/19 05:12:46;;;;;;;4.40;2.15;;;;;;;10.29;32.33;98204.34;5087230;28;20127;-71
2022/02/19 05:15:16;;;;;;;5.00;1.65;;;;;;;10.31;31.77;98182.09;5086619;28;20051;-70
2022/02/19 05:17:47;;;;;;;5.13;2.03;;;;;;;10.34;32.34;98207.34;5087545;28;20044;-69
2022/02/19 05:20:14;;;;;;;5.03;2.70;;;;;;;10.25;31.98;98198.53;5087720;28;20054;-70
2022/02/19 05:22:42;;;;;;;10.85;2.00;;;;;;;10.21;32.01;98201.66;5085211;28;20075;-69
2022/02/19 05:25:09;;;;;;;6.47;2.80;;;;;;;10.14;32.52;98178.56;5087096;28;20055;-69
2022/02/19 05:27:37;;;;;;;5.72;2.10;;;;;;;10.01;33.08;98179.97;5087359;28;20056;-70
2022/02/19 05:30:05;;;;;;;3.90;1.27;;;;;;;9.86;32.78;98179.75;5086442;28;20048;-70
2022/02/19 05:32:33;;;;;;;3.60;1.55;;;;;;;9.77;33.26;98190.25;5086637;28;20052;-71
2022/02/19 05:35:00;;;;;;;7.28;2.08;;;;;;;9.70;33.24;98183.94;5087618;28;20151;-70
2022/02/19 05:37:30;;;;;;;3.53;1.45;;;;;;;9.65;33.49;98169.59;5086665;28;20076;-71
2022/02/19 05:39:57;;;;;;;6.15;2.15;;;;;;;9.55;33.70;98165.25;5068875;28;20048;-68
2022/02/19 05:42:24;;;;;;;4.95;1.95;;;;;;;9.50;34.05;98191.25;5087197;28;20048;-69
2022/02/19 05:44:51;;;;;;;4.88;1.75;;;;;;;9.47;34.26;98190.72;5086455;28;20268;-69
2022/02/19 05:47:19;;;;;;;6.50;2.00;;;;;;;9.42;34.55;98200.91;5086085;28;20051;-69
2022/02/19 05:49:48;;;;;;;3.63;2.08;;;;;;;9.33;34.80;98206.13;5086868;28;20048;-74
2022/02/19 05:52:15;;;;;;;5.20;2.38;;;;;;;9.27;35.18;98193.56;5084785;28;20132;-71
2022/02/19 05:54:43;;;;;;;8.60;2.17;;;;;;;9.24;35.26;98208.84;5085001;28;20054;-70
2022/02/19 05:57:10;;;;;;;4.50;2.67;;;;;;;9.23;35.39;98201.94;5084602;28;20132;-69
2022/02/19 05:59:37;;;;;;;9.40;2.80;;;;;;;9.19;35.06;98217.22;5085478;28;20123;-68
2022/02/19 06:02:04;;;;;;;3.53;0.90;;;;;;;9.22;34.43;98206.38;5084443;28;20135;-69
2022/02/19 06:04:32;;;;;;;5.88;1.65;;;;;;;9.25;34.31;98202.59;5085971;28;20128;-70
2022/02/19 06:07:00;;;;;;;6.40;1.80;;;;;;;9.26;33.80;98214.81;5085168;28;20138;-69
2022/02/19 06:09:27;;;;;;;3.22;1.30;;;;;;;9.23;34.08;98218.56;5087009;28;20108;-70
2022/02/19 06:11:54;;;;;;;5.97;1.67;;;;;;;9.26;33.68;98212.19;5085328;28;20079;-71
2022/02/19 06:14:21;;;;;;;5.22;2.30;;;;;;;9.24;33.92;98214.97;5085456;28;20544;-69
2022/02/19 06:16:49;;;;;;;6.18;2.70;;;;;;;9.17;33.06;98213.91;5085252;28;20708;-70
2022/02/19 06:19:16;;;;;;;2.67;1.35;;;;;;;9.19;33.57;98222.50;5084840;28;20048;-69
2022/02/19 06:21:43;;;;;;;5.20;1.65;;;;;;;9.21;33.55;98204.72;5085883;28;20307;-69
2022/02/19 06:24:11;;;;;;;2.75;1.27;;;;;;;9.23;33.86;98233.53;5083890;28;20048;-70
2022/02/19 06:26:38;;;;;;;5.82;2.45;;;;;;;9.25;33.61;98221.88;5085042;28;20597;-69
2022/02/19 06:29:05;;;;;;;8.57;2.13;;;;;;;9.29;33.55;98223.25;5085043;28;20132;-71
2022/02/19 06:31:32;;;;;;;3.70;2.40;;;;;;;9.37;33.31;98223.28;5085415;28;20129;-72
2022/02/19 06:33:59;;;;;;;7.28;2.45;;;;;;;9.47;33.45;98246.06;5085245;28;20123;-71
2022/02/19 06:36:26;;;;;;;7.07;2.35;;;;;;;9.49;32.75;98247.59;5084944;28;20127;-71
2022/02/19 06:38:53;;;;;;;7.90;2.90;;;;;;;9.62;32.76;98244.53;5105406;27;20043;-68
2022/02/19 06:41:22;;;;;;;7.93;2.70;;;;;;;9.66;32.91;98234.53;5125946;27;20118;-70
2022/02/19 06:43:49;;;;;;;6.35;4.20;;;;;;;9.74;32.79;98253.84;5126566;27;20159;-70
2022/02/19 06:46:19;;;;;;;6.15;3.55;;;;;;;9.82;32.75;98250.44;5126920;27;20097;-73
2022/02/19 06:48:46;;;;;;;5.32;1.80;;;;;;;9.84;32.31;98256.38;5126635;27;20043;-75
2022/02/19 06:51:12;;;;;;;2.22;1.27;;;;;;;9.89;32.00;98248.81;5126637;27;20043;-69
2022/02/19 06:53:41;;;;;;;7.15;2.72;;;;;;;9.97;31.97;98239.31;5125163;27;20455;-74
2022/02/19 06:56:08;;;;;;;4.38;1.55;;;;;;;10.02;31.98;98243.13;5126823;27;20050;-70
2022/02/19 06:58:36;;;;;;;4.43;1.80;;;;;;;10.06;31.99;98246.28;5127065;27;20073;-70
2022/02/19 07:01:03;;;;;;;5.03;3.13;;;;;;;10.11;32.25;98254.53;5107628;27;20065;-69
2022/02/19 07:03:31;;;;;;;4.97;1.98;;;;;;;10.13;31.95;98250.75;5126320;27;20141;-71
2022/02/19 07:05:58;;;;;;;5.53;1.85;;;;;;;10.20;32.08;98263.34;5126453;27;20050;-70
2022/02/19 07:08:26;;;;;;;8.00;3.08;;;;;;;10.18;32.50;98265.31;5126601;27;20039;-70
2022/02/19 07:10:53;;;;;;;2.78;1.90;;;;;;;10.13;32.19;98263.94;5126584;27;20134;-70
2022/02/19 07:13:20;;;;;;;6.40;2.15;;;;;;;10.12;31.97;98262.31;5124064;27;20079;-75
2022/02/19 07:15:48;;;;;;;5.35;2.05;;;;;;;10.14;31.97;98248.97;5125692;27;20059;-69
2022/02/19 07:18:15;;;;;;;5.45;1.95;;;;;;;10.23;31.97;98273.56;5125440;27;20413;-69
2022/02/19 07:20:42;;;;;;;9.20;1.75;;;;;;;10.22;31.90;98291.19;5125629;27;20066;-70
2022/02/19 07:23:10;;;;;;;3.35;1.70;;;;;;;10.17;32.11;98284.75;5126803;27;20486;-69
2022/02/19 07:25:37;;;;;;;2.78;1.55;;;;;;;10.19;32.35;98261.66;5127907;27;20047;-69
2022/02/19 07:28:06;;;;;;;11.98;1.92;;;;;;;10.24;32.11;98277.84;5125617;28;20134;-70
2022/02/19 07:30:38;;;;;;;3.75;1.30;;;;;;;10.29;32.29;98288.75;5108341;28;20055;-79
2022/02/19 07:33:07;;;;;;;5.13;1.55;;;;;;;10.36;32.26;98281.91;5127692;28;20047;-72
2022/02/19 07:35:34;;;;;;;5.65;1.88;;;;;;;10.35;32.24;98287.34;5126800;28;20050;-72
2022/02/19 07:38:01;;;;;;;3.20;1.13;;;;;;;10.37;32.42;98304.69;5126715;28;20043;-74
2022/02/19 07:40:28;;;;;;;4.20;2.97;;;;;;;10.33;32.49;98285.69;5126326;28;20134;-71
2022/02/19 07:42:55;;;;;;;10.15;3.17;;;;;;;10.36;32.45;98315.38;5124111;28;20376;-70
2022/02/19 07:45:23;;;;;;;5.53;2.00;;;;;;;10.36;32.57;98316.22;5125399;28;20043;-67
2022/02/19 07:47:51;;;;;;;9.38;1.77;;;;;;;10.36;32.44;98313.56;5124066;28;20040;-70
2022/02/19 07:58:33;;;;;;;6.73;1.70;;;;;;;10.21;32.77;98318.59;5111203;28;20135;-71
2022/02/19 08:01:02;;;;;;;7.47;2.00;;;;;;;10.10;32.75;98316.19;5125479;28;20105;-71
2022/02/19 08:03:30;;;;;;;6.38;2.38;;;;;;;10.09;33.26;98302.19;5124802;28;20158;-76
2022/02/19 08:06:01;;;;;;;6.80;2.50;;;;;;;10.09;33.06;98336.47;5128605;28;20099;-70
2022/02/19 08:08:28;;;;;;;6.07;2.63;;;;;;;10.12;33.39;98304.50;5134016;28;20126;-78
2022/02/19 08:10:56;;;;;;;4.88;2.20;;;;;;;10.07;33.31;98314.69;5125032;28;20318;-72
2022/02/19 08:13:24;;;;;;;6.25;2.28;;;;;;;10.00;32.81;98332.13;5114605;28;20067;-72
2022/02/19 08:15:51;;;;;;;2.28;0.98;;;;;;;10.09;33.11;98336.47;5104793;28;20044;-69
2022/02/19 08:18:18;;;;;;;4.93;1.10;;;;;;;10.08;32.65;98345.38;5105543;28;20047;-68
2022/02/19 08:20:48;;;;;;;3.65;1.30;;;;;;;10.06;32.53;98378.97;5104849;28;20111;-73
2022/02/19 08:23:19;;;;;;;5.05;2.10;;;;;;;10.11;32.98;98370.63;5103907;28;20081;-71
2022/02/19 08:25:46;;;;;;;6.53;2.03;;;;;;;10.13;33.03;98332.53;5109829;28;20054;-80
2022/02/19 08:28:14;;;;;;;10.75;3.47;;;;;;;10.19;33.01;98354.00;5104565;28;20130;-75
2022/02/19 08:30:42;;;;;;;5.55;1.60;;;;;;;10.21;33.18;98373.13;5104566;28;20063;-71
2022/02/19 08:33:10;;;;;;;6.72;2.30;;;;;;;10.12;32.90;98391.56;5104837;28;20044;-73
2022/02/19 08:35:39;;;;;;;8.10;3.83;;;;;;;10.09;32.91;98351.47;5099334;28;20131;-70
2022/02/19 08:38:08;;;;;;;7.07;1.40;;;;;;;9.89;32.81;98388.59;5104329;28;20085;-70
2022/02/19 08:40:36;;;;;;;4.03;1.02;;;;;;;9.95;33.09;98376.59;5105252;28;20372;-70
2022/02/19 08:43:04;;;;;;;4.78;2.08;;;;;;;10.01;33.11;98391.81;5103191;28;20052;-72
2022/02/19 08:45:31;;;;;;;4.82;2.33;;;;;;;10.05;32.89;98400.25;5103572;28;20043;-72
2022/02/19 08:48:04;;;;;;;5.53;1.75;;;;;;;10.08;32.91;98386.75;5104568;28;20554;-72
2022/02/19 08:50:32;;;;;;;9.57;3.67;;;;;;;10.13;32.89;98400.28;5104349;28;20073;-72
2022/02/19 08:53:00;;;;;;;10.18;3.38;;;;;;;10.47;33.02;98412.75;5103090;28;20094;-70
2022/02/19 08:55:29;;;;;;;13.98;5.07;;;;;;;10.68;32.60;98420.31;5108303;28;20044;-75
2022/02/19 08:57:57;;;;;;;12.13;4.80;;;;;;;10.61;32.35;98408.72;5106384;28;20044;-66
2022/02/19 09:00:25;;;;;;;10.80;5.13;;;;;;;10.54;31.88;98420.91;5107552;28;20090;-80
2022/02/19 09:02:52;;;;;;;5.82;3.22;;;;;;;10.29;32.17;98410.97;5106050;28;20036;-67
2022/02/19 09:05:20;;;;;;;6.80;4.43;;;;;;;10.46;32.07;98445.41;5105193;28;20403;-72
2022/02/19 09:07:47;;;;;;;7.32;3.05;;;;;;;10.34;31.94;98423.75;5105893;28;20082;-76
2022/02/19 09:10:17;;;;;;;4.75;2.08;;;;;;;10.36;31.87;98428.88;5087216;28;20207;-70
2022/02/19 09:12:49;;;;;;;4.10;2.15;;;;;;;10.40;32.32;98469.78;5106983;28;20044;-79
2022/02/19 09:15:20;;;;;;;11.82;3.03;;;;;;;10.23;32.49;98435.34;5106294;28;20078;-75
2022/02/19 09:17:48;;;;;;;6.40;3.00;;;;;;;10.34;32.54;98473.88;5106333;28;20637;-78
2022/02/19 09:20:21;;;;;;;6.15;2.38;;;;;;;10.68;32.07;98463.38;5108164;28;20079;-75
2022/02/19 09:22:48;;;;;;;6.43;2.55;;;;;;;10.77;31.86;98480.09;5108679;28;20048;-75
2022/02/19 09:25:16;;;;;;;5.75;3.08;;;;;;;10.65;31.89;98432.00;5104947;28;20113;-71
2022/02/19 09:27:44;;;;;;;7.57;3.55;;;;;;;10.47;32.26;98466.38;5122333;27;20134;-69
2022/02/19 09:30:13;;;;;;;8.10;2.03;;;;;;;10.65;32.33;98483.97;5127370;27;20043;-72
2022/02/19 09:32:42;;;;;;;15.48;2.22;;;;;;;10.79;32.14;98475.50;5126472;27;20137;-69
2022/02/19 09:35:46;;;;;;;6.35;2.03;;;;;;;10.64;32.16;98480.53;5123200;27;20082;-72
2022/02/19 09:38:13;;;;;;;6.25;2.67;;;;;;;10.83;32.21;98497.94;5125207;27;20039;-73
2022/02/19 09:40:42;;;;;;;7.03;2.70;;;;;;;10.64;31.97;98506.06;5125034;27;20126;-70
2022/02/19 09:43:11;;;;;;;3.13;2.13;;;;;;;10.43;32.32;98496.69;5123323;27;20043;-72
2022/02/19 09:45:38;;;;;;;2.42;1.23;;;;;;;10.60;32.31;98528.50;5123536;27;20673;-71
2022/02/19 09:48:12;;;;;;;3.25;2.05;;;;;;;10.94;32.31;98498.69;5123464;27;20421;-72
2022/02/19 09:50:40;;;;;;;2.58;1.50;;;;;;;11.01;31.53;98536.69;5124079;27;20043;-69
2022/02/19 09:53:08;;;;;;;7.95;3.03;;;;;;;10.99;31.83;98507.78;5125231;27;20050;-75
2022/02/19 09:55:36;;;;;;;4.55;1.48;;;;;;;11.16;31.76;98519.25;5128205;27;20130;-73
2022/02/19 09:58:04;;;;;;;4.38;1.73;;;;;;;11.19;31.93;98548.03;5126435;27;20051;-74
2022/02/19 10:00:39;;;;;;;6.43;1.98;;;;;;;11.32;31.87;98531.72;5124467;27;20047;-69
2022/02/19 10:03:15;;;;;;;3.22;1.95;;;;;;;11.45;31.45;98539.22;5121158;27;20058;-69
2022/02/19 10:05:43;;;;;;;4.30;2.00;;;;;;;11.18;31.86;98548.19;5111247;27;20070;-69
2022/02/19 10:08:10;;;;;;;8.02;2.35;;;;;;;11.19;31.91;98578.91;5055373;28;20491;-70
2022/02/19 10:10:40;;;;;;;3.47;1.92;;;;;;;10.87;32.25;98564.50;5108115;27;20058;-69
2022/02/19 10:13:08;;;;;;;6.05;1.63;;;;;;;10.87;32.45;98570.59;5108317;27;20051;-69
2022/02/19 10:15:49;;;;;;;8.10;2.05;;;;;;;10.95;32.37;98590.13;5112294;27;20046;-67
2022/02/19 10:18:25;;;;;;;4.32;1.48;;;;;;;10.85;32.67;98593.69;5092333;27;20186;-71
2022/02/19 10:20:53;;;;;;;4.03;1.23;;;;;;;10.92;32.47;98590.47;5110454;27;20124;-71
2022/02/19 10:23:21;;;;;;;4.53;1.90;;;;;;;11.03;32.60;98593.66;5110038;27;20067;-69
2022/02/19 10:26:01;;;;;;;4.10;1.92;;;;;;;11.01;32.61;98602.75;5107815;27;20070;-67
2022/02/19 10:28:29;;;;;;;9.07;2.65;;;;;;;11.12;32.52;98591.91;5096016;28;20412;-69
2022/02/19 10:30:56;;;;;;;5.97;2.30;;;;;;;10.77;32.56;98620.06;5099495;28;20081;-72
2022/02/19 10:33:28;;;;;;;2.78;1.40;;;;;;;10.83;33.07;98608.06;5102096;28;20046;-69
2022/02/19 10:35:55;;;;;;;2.60;1.52;;;;;;;10.93;32.86;98629.09;5101457;28;20104;-70
2022/02/19 10:38:24;;;;;;;4.68;2.15;;;;;;;10.96;32.95;98602.38;5103341;28;20089;-70
2022/02/19 10:40:56;;;;;;;6.55;2.22;;;;;;;11.05;32.78;98607.53;5075982;28;20063;-72
2022/02/19 10:43:30;;;;;;;8.00;1.50;;;;;;;10.94;32.78;98615.72;5102848;28;20047;-72
2022/02/19 10:45:59;;;;;;;6.80;2.83;;;;;;;11.15;32.67;98612.75;5101815;28;20160;-71
2022/02/19 10:48:29;;;;;;;8.07;2.80;;;;;;;11.22;32.67;98624.34;5102054;28;20108;-72
2022/02/19 10:51:09;;;;;;;6.18;2.33;;;;;;;10.96;33.13;98628.78;5086954;28;20614;-71
2022/02/19 10:53:37;;;;;;;7.63;2.60;;;;;;;11.06;33.07;98650.66;5078779;28;20051;-69
2022/02/19 10:56:11;;;;;;;7.22;2.92;;;;;;;11.13;33.12;98640.28;5065912;28;20048;-68
2022/02/19 10:58:39;;;;;;;6.32;2.00;;;;;;;11.20;33.03;98646.63;5102396;28;20510;-70
2022/02/19 11:01:22;;;;;;;6.30;2.03;;;;;;;11.16;32.92;98646.09;5103155;28;20138;-72
2022/02/19 11:03:51;;;;;;;12.18;2.70;;;;;;;11.08;33.11;98622.28;5098681;28;20134;-73
2022/02/19 11:06:18;;;;;;;7.72;3.10;;;;;;;11.11;33.17;98645.75;5101939;28;20036;-70
2022/02/19 11:08:46;;;;;;;6.10;2.47;;;;;;;11.14;33.18;98656.00;5105236;28;20134;-71
2022/02/19 11:11:13;;;;;;;7.07;1.88;;;;;;;11.09;33.17;98676.75;5104707;28;20043;-75
2022/02/19 11:13:41;;;;;;;4.35;2.60;;;;;;;11.06;33.45;98630.34;5100341;28;20082;-70
2022/02/19 11:16:09;;;;;;;6.72;2.80;;;;;;;11.01;33.41;98674.06;5102521;28;20130;-74
2022/02/19 11:18:37;;;;;;;3.05;1.60;;;;;;;10.95;33.34;98672.03;5104866;28;20058;-73
2022/02/19 11:21:06;;;;;;;6.80;2.28;;;;;;;11.11;33.51;98695.97;5102969;28;20039;-72
2022/02/19 11:23:35;;;;;;;7.22;2.13;;;;;;;11.19;33.51;98703.94;5103589;28;20050;-73
2022/02/19 11:26:03;;;;;;;5.55;2.20;;;;;;;11.24;33.53;98706.94;5088180;28;20127;-69
2022/02/19 11:28:33;;;;;;;4.80;1.88;;;;;;;11.26;33.55;98710.25;5123278;27;20627;-73
2022/02/19 11:31:01;;;;;;;6.03;2.10;;;;;;;11.00;33.63;98722.59;5130542;28;20275;-79
2022/02/19 11:33:31;;;;;;;5.93;2.10;;;;;;;10.84;34.23;98720.63;5130741;28;20068;-74
2022/02/19 11:36:03;;;;;;;10.68;2.42;;;;;;;10.84;34.22;98742.59;5130348;28;20148;-74
2022/02/19 11:38:35;;;;;;;4.78;2.25;;;;;;;10.87;34.52;98747.56;5119209;28;20253;-71
2022/02/19 11:41:03;;;;;;;8.98;3.45;;;;;;;11.00;34.23;98731.38;5115261;28;20570;-70
2022/02/19 11:43:37;;;;;;;4.30;1.88;;;;;;;10.86;34.22;98767.06;5126299;28;20135;-72
2022/02/19 11:46:10;;;;;;;5.82;3.22;;;;;;;10.89;34.37;98752.72;5127982;28;20054;-70